• Join FlightAware (Why Join?)
  • Login
  • US Flag 
Gobble Gobble! 
09:27AM EST


 

Airport Tracker/Info


-or-


 

Live Flight TrackerFlight Track Log ✈ WAV757 ✈ 20-Jul-2013 ✈ PATA / TAL - PAFA / FAI

Flight Track Log - Related Links

Times and Time Zones

All times are in EDT time to prevent confusion due to time zone crossing. See the WAV757 flight status page for this flight to view local times or setup timezone preferences in your user account.

Time Position Orientation Groundspeed Altitude Reporting Facility
EDT Latitude Longitude Course Direction KTS MPH feet Rate Location/Type
01:48PM 65.1333 -151.7833 90° East 150 173 3,600  Level Anchorage Center
01:49PM 65.1333 -151.6833 90° East 170 196 4,600 960 Climbing Anchorage Center
01:50PM 65.1167 -151.5667 109° East 170 196 5,600 960 Climbing Anchorage Center
01:51PM 65.1000 -151.4667 112° Southeast 170 196 6,600 660 Climbing Anchorage Center
01:52PM 65.1000 -151.3333 90° East 190 219 7,000 180 Climbing Anchorage Center
01:53PM 65.1000 -151.2000 90° East 200 230 7,000  Level Anchorage Center
01:54PM 65.1000 -151.0667 90° East 190 219 7,000  Level Anchorage Center
01:55PM 65.1000 -150.9500 90° East 200 230 7,000  Level Anchorage Center
01:56PM 65.1000 -150.8167 90° East 190 219 7,000  Level Anchorage Center
01:57PM 65.1000 -150.6833 90° East 200 230 7,000  Level Anchorage Center
01:58PM 65.1000 -150.5667 90° East 190 219 7,000  Level Anchorage Center
01:59PM 65.1000 -150.4333 90° East 190 219 7,000  Level Anchorage Center
02:00PM 65.1000 -150.3167 90° East 190 219 7,000  Level Anchorage Center
02:01PM 65.1167 -150.1833 73° East 190 219 7,000  Level Anchorage Center
02:02PM 65.1000 -150.0500 106° East 190 219 7,000  Level Anchorage Center
02:03PM 65.1000 -149.9333 90° East 200 230 7,000  Level Anchorage Center
02:04PM 65.1000 -149.8000 90° East 190 219 7,000  Level Anchorage Center
02:05PM 65.1000 -149.6667 90° East 200 230 7,000  Level Anchorage Center
02:06PM 65.1000 -149.5500 90° East 190 219 7,000  Level Anchorage Center
02:07PM 65.1167 -149.4167 73° East 190 219 7,000  Level Anchorage Center
02:08PM 65.1167 -149.2833 90° East 200 230 7,000  Level Anchorage Center
02:10PM 65.1138 -149.1703 93° East  Level FlightAware Approximate
02:17PM 65.1004 -148.3921 90° East  Level FlightAware Approximate
02:18PM 65.1005 -148.2809 90° East  Level FlightAware Approximate
02:19PM 65.1004 -148.1696 90° East  Level FlightAware Approximate
02:20PM 65.1003 -148.0583 90° East  Level FlightAware Approximate
02:21PM 65.1001 -147.9470 90° East  Level FlightAware Approximate
02:22PM 65.0963 -147.8363 98° East  Level FlightAware Approximate
02:23PM 65.0898 -147.7261 98° East  Level FlightAware Approximate
02:24PM 65.0831 -147.6169 198° South  Level FlightAware Approximate
02:25PM 65.0386 -147.6521 198° South  Level FlightAware Approximate
02:26PM 64.9941 -147.6871 198° South  Level FlightAware Approximate
02:27PM 64.9497 -147.7221 198° South  Level FlightAware Approximate
02:28PM 64.9052 -147.7569 198° South  Level FlightAware Approximate
02:29PM 64.8607 -147.7916 198° South  Level FlightAware Approximate
02:30PM 64.8173 -147.8327 203° Southwest  Level FlightAware Approximate
02:31PM 64.8151 -147.8564 203° Southwest  Level Estimated
02:32PM 64.8151 -147.8564 203° Southwest  Level Estimated
02:33PM 64.8151 -147.8564 203° Southwest  Level Estimated
02:34PM 64.8151 -147.8564 203° Southwest  Level Estimated
02:35PM 64.8151 -147.8564 203° Southwest  Level Estimated
02:36PM 64.8151 -147.8564 203° Southwest  Level Estimated
02:37PM 64.8151 -147.8564 203° Southwest  Level Estimated
02:38PM 64.8151 -147.8564 203° Southwest  Level Estimated
02:39PM 64.8151 -147.8564 203° Southwest  Level Estimated
02:40PM 64.8151 -147.8564 203° Southwest  Level Estimated
02:41PM 64.8151 -147.8564 203° Southwest  Level Estimated
02:42PM 64.8151 -147.8564 203° Southwest  Level Estimated
02:43PM 64.8151 -147.8564 203° Southwest  Level Estimated
02:44PM 64.8151 -147.8564 203° Southwest  Level Estimated
02:45PM 64.8151 -147.8564 203° Southwest  Level Estimated
02:46PM 64.8151 -147.8564 203° Southwest  Level Estimated